sim
Sign-in with your pilot id or email,
or register
Callsign
Passwort

Schedule Details

Flight Number: DLH1831 (1)
Departure: Valencia Airport (LEVC) at 16:30
Arrival: Munich Airport (EDDM) at 18:50
Route: Lufthansa Passenger Schedule. Enter filed route here before submitting Pirep.

Weather Information
Getting current METAR information for LEVC 192200Z 28005KT CAVOK 23/15 Q1016 NOSIG
Getting current METAR information for EDDM 192150Z VRB01KT CAVOK 10/09 Q1018 NOSIG

Schedule Frequency

Route Map